Salem, OR

12:44 PM PST on December 07, 2016 (GMT -0800)
| | Change Station
Active Advisory: Winter Storm Watch

Elev -9999 ft 0.00 °N, 0.00 °E | Updated

Mostly Cloudy
Mostly Cloudy
37 °F
Feels Like 30 °F
N
10
Wind Variable Wind from NNE
Gusts 17 mph

Today
High -- | Low -- °F
--% Chance of Precip.
Yesterday
High -- | Low -- °F
Precip. -- in
Pressure 30.30 in
Visibility 10.0 miles
Clouds Scattered Clouds 1300 ft
Windchill 30 °F
Dew Point 26 °F
Humidity 62%
Rainfall --
Snow Depth Not available.
7:36 AM 4:30 PM
First Quarter, 55% visible
METAR KSLE 071956Z 05006KT 10SM SCT013 01/M03 A3029 RMK AO2 SLP258 T00111033
Pressure 30.30 in
Visibility 10.0 miles
Clouds Scattered Clouds 1300 ft
Windchill 30 °F
Dew Point 26 °F
Humidity 62%
Rainfall --
Snow Depth Not available.
7:36 AM 4:30 PM
First Quarter, 55% visible
METAR KSLE 071956Z 05006KT 10SM SCT013 01/M03 A3029 RMK AO2 SLP258 T00111033

10-Day Weather Forecast

Almanac

Astronomy

Dec. 07, 2016 Rise Set
Actual Time
Civil Twilight
Nautical Twilight
Astronomical Twilight
Moon
Length of Visible Light
Length of Day
Tomorrow will be .
, % of the Moon is Illuminated

Today's Extremes

State Highs State Lows

Community

WunderPhotos

Upload Photos

1,956,170 photos uploaded!

WunderBlog® & News

Nearby

Air Quality

  Air Quality AQ Index Pollutant
Not available.

Snow Depth

Station Depth Elevation

Earthquake Activity

City Distance Mag. Time & Date
Minimum magnitude displayed is 2.5.

Coastal Water Temperatures

Place Temperature

Stations

Nearby Weather Stations

Station Location Temp. Windchill Dew Point Humidity Wind Precip. Elev Updated Type
                   

Watches & Warnings

Winter Storm Watch
Issued: 9:00 AM PST Dec. 7, 2016 – National Weather Service

... Winter Storm Watch now in effect from Thursday morning through
Thursday afternoon for the central Willamette Valley...

The Winter Storm Watch is now in effect from Thursday morning
through Thursday afternoon.

* Timing... beginning around sunrise Thursday and continuing
through most of Thursday afternoon.

* Snow accumulations... up to 1 or 2 inches Thursday morning...
with the greatest accumulations north of Salem.

* Ice accumulations... up to a quarter inch of ice accumulation is
possible later Thursday morning and Thursday afternoon.

* Impacts... travel will be difficult on Thursday.

Precautionary/preparedness actions...

A Winter Storm Watch means there is a potential for significant
snow... sleet... or ice accumulations that may impact travel.
Continue to monitor the latest forecasts.